createdAt,value
2018-07-10T00:02:18.122Z,94779.73
2018-07-10T00:07:04.963Z,94778.73
2018-07-10T00:12:07.254Z,94776.95
2018-07-10T00:14:36.119Z,94767.13
2018-07-10T00:17:04.990Z,94765.50
2018-07-10T00:19:34.258Z,94765.50
2018-07-10T00:22:03.348Z,94758.19
2018-07-10T00:24:32.915Z,94761.31
2018-07-10T00:27:02.246Z,94761.72
2018-07-10T00:29:31.181Z,94748.73
2018-07-10T00:32:00.206Z,94745.97
2018-07-10T00:34:29.066Z,94749.91
2018-07-10T00:36:58.234Z,94744.39
2018-07-10T00:39:27.365Z,94736.71
2018-07-10T00:41:56.718Z,94738.59
2018-07-10T00:44:26.172Z,94735.56
2018-07-10T00:46:55.015Z,94738.78
2018-07-10T00:49:24.518Z,94732.38
2018-07-10T00:51:53.295Z,94732.25
2018-07-10T00:54:22.855Z,94735.28
2018-07-10T00:56:51.898Z,94737.29
2018-07-10T00:59:20.742Z,94728.23
2018-07-10T01:01:49.837Z,94725.47
2018-07-10T01:04:19.935Z,94728.61
2018-07-10T01:06:49.112Z,94729.23
2018-07-10T01:09:18.379Z,94723.81
2018-07-10T01:11:48.046Z,94722.94
2018-07-10T01:14:16.727Z,94725.22
2018-07-10T01:16:46.043Z,94716.08
2018-07-10T01:19:16.787Z,94721.36
2018-07-10T01:21:46.541Z,94720.31
2018-07-10T01:24:18.203Z,94726.33
2018-07-10T01:26:48.386Z,94723.55
2018-07-10T01:29:22.886Z,94731.86
2018-07-10T01:31:53.399Z,94730.95
2018-07-10T01:34:23.079Z,94728.95
2018-07-10T01:36:53.293Z,94726.95
2018-07-10T01:39:22.884Z,94738.39
2018-07-10T01:41:51.951Z,94729.94
2018-07-10T01:44:21.422Z,94734.95
2018-07-10T01:46:50.476Z,94737.84
2018-07-10T01:49:19.608Z,94739.34
2018-07-10T01:51:49.018Z,94737.82
2018-07-10T01:54:18.640Z,94736.92
2018-07-10T01:56:47.457Z,94739.66
2018-07-10T01:59:17.215Z,94741.07
2018-07-10T02:01:46.319Z,94731.64
2018-07-10T02:04:15.358Z,94739.31
2018-07-10T02:06:44.421Z,94732.30
2018-07-10T02:09:13.512Z,94737.41
2018-07-10T02:11:42.352Z,94738.03
2018-07-10T02:14:11.439Z,94729.12
2018-07-10T02:16:40.419Z,94732.88
2018-07-10T02:19:09.299Z,94729.22
2018-07-10T02:21:38.826Z,94725.28
2018-07-10T02:24:07.999Z,94727.04
2018-07-10T02:26:37.206Z,94725.27
2018-07-10T02:29:06.730Z,94720.99
2018-07-10T02:31:35.811Z,94726.76
2018-07-10T02:34:04.715Z,94731.17
2018-07-10T02:36:34.027Z,94718.89
2018-07-10T02:39:03.186Z,94724.00
2018-07-10T02:41:31.934Z,94714.46
2018-07-10T02:44:04.716Z,94726.47
2018-07-10T02:46:35.786Z,94721.09
2018-07-10T02:49:10.747Z,94729.89
2018-07-10T02:52:00.226Z,94728.86
2018-07-10T02:54:31.716Z,94735.52
2018-07-10T02:57:00.851Z,94731.23
2018-07-10T02:59:38.521Z,94728.75
2018-07-10T03:02:24.776Z,94727.37
2018-07-10T03:05:02.471Z,94728.77
2018-07-10T03:07:31.849Z,94737.95
2018-07-10T03:10:02.408Z,94740.23
2018-07-10T03:12:35.340Z,94734.43
2018-07-10T03:15:09.606Z,94738.61
2018-07-10T03:17:38.617Z,94747.14
2018-07-10T03:20:08.350Z,94746.94
2018-07-10T03:22:37.502Z,94750.09
2018-07-10T03:25:07.390Z,94747.22
2018-07-10T03:27:36.266Z,94739.69
2018-07-10T03:30:06.053Z,94745.11
2018-07-10T03:32:35.555Z,94739.75
2018-07-10T03:35:04.409Z,94748.09
2018-07-10T03:37:33.377Z,94749.04
2018-07-10T03:40:02.951Z,94750.66
2018-07-10T03:42:32.147Z,94744.23
2018-07-10T03:45:00.951Z,94744.25
2018-07-10T03:47:30.021Z,94746.36
2018-07-10T03:49:59.166Z,94746.25
2018-07-10T03:52:33.164Z,94748.47
2018-07-10T03:55:08.372Z,94745.77
2018-07-10T03:57:37.990Z,94753.55
2018-07-10T04:00:09.457Z,94743.61
2018-07-10T04:02:42.615Z,94745.86
2018-07-10T04:05:11.358Z,94748.63
2018-07-10T04:07:40.524Z,94747.38
2018-07-10T04:10:10.228Z,94749.00
2018-07-10T04:12:39.310Z,94748.80
2018-07-10T04:15:09.139Z,94748.87
2018-07-10T04:17:46.929Z,94752.76
2018-07-10T04:20:17.246Z,94755.79
2018-07-10T04:22:52.871Z,94760.38
2018-07-10T04:25:26.462Z,94760.67
2018-07-10T04:28:02.587Z,94760.16
2018-07-10T04:30:41.785Z,94759.05
2018-07-10T04:33:11.660Z,94769.39
2018-07-10T04:35:40.619Z,94771.00
2018-07-10T04:38:09.873Z,94767.78
2018-07-10T04:40:39.750Z,94769.92
2018-07-10T04:43:12.824Z,94777.55
2018-07-10T04:45:43.987Z,94768.44
2018-07-10T04:48:35.414Z,94773.32
2018-07-10T04:51:44.973Z,94771.83
2018-07-10T04:54:22.025Z,94774.34
2018-07-10T04:57:14.871Z,94777.63
2018-07-10T04:59:44.191Z,94780.71
2018-07-10T05:02:14.051Z,94778.97
2018-07-10T05:04:43.410Z,94789.67
2018-07-10T05:07:12.666Z,94785.25
2018-07-10T05:09:43.230Z,94790.13
2018-07-10T05:12:12.385Z,94789.87
2018-07-10T05:14:44.219Z,94790.03
2018-07-10T05:17:15.575Z,94789.43
2018-07-10T05:19:44.931Z,94793.39
2018-07-10T05:22:13.818Z,94795.84
2018-07-10T05:24:43.332Z,94799.25
2018-07-10T05:27:12.343Z,94801.34
2018-07-10T05:29:41.430Z,94801.56
2018-07-10T05:32:11.670Z,94803.12
2018-07-10T05:34:41.791Z,94802.48
2018-07-10T05:37:13.107Z,94802.83
2018-07-10T05:39:43.995Z,94794.77
2018-07-10T05:42:13.823Z,94796.58
2018-07-10T05:44:43.585Z,94806.82
2018-07-10T05:47:12.763Z,94813.09
2018-07-10T05:49:42.485Z,94807.70
2018-07-10T05:52:13.165Z,94806.06
2018-07-10T05:54:43.554Z,94804.26
2018-07-10T05:57:13.261Z,94803.87
2018-07-10T05:59:42.441Z,94800.50
2018-07-10T06:02:11.363Z,94801.09
2018-07-10T06:04:40.465Z,94804.97
2018-07-10T06:07:09.675Z,94805.09
2018-07-10T06:09:38.748Z,94807.24
2018-07-10T06:12:08.166Z,94796.70
2018-07-10T06:14:37.936Z,94805.64
2018-07-10T06:17:07.578Z,94795.33
2018-07-10T06:19:36.556Z,94801.08
2018-07-10T06:22:05.515Z,94801.20
2018-07-10T06:24:34.454Z,94795.03
2018-07-10T06:27:05.932Z,94801.80
2018-07-10T06:29:51.903Z,94795.58
2018-07-10T06:32:22.356Z,94797.92
2018-07-10T06:34:57.375Z,94798.86
2018-07-10T06:37:31.756Z,94798.59
2018-07-10T06:40:02.223Z,94805.01
2018-07-10T06:42:45.044Z,94802.61
2018-07-10T06:45:14.242Z,94801.52
2018-07-10T06:47:47.637Z,94809.69
2018-07-10T06:50:18.835Z,94798.22
2018-07-10T06:52:49.104Z,94799.50
2018-07-10T06:55:19.671Z,94803.53
2018-07-10T06:57:56.340Z,94795.85
2018-07-10T07:00:25.871Z,94795.86
2018-07-10T07:02:55.223Z,94798.39
2018-07-10T07:05:24.375Z,94802.83
2018-07-10T07:07:53.254Z,94794.20
2018-07-10T07:10:22.203Z,94797.67
2018-07-10T07:12:51.426Z,94792.11
2018-07-10T07:15:21.111Z,94795.58
2018-07-10T07:17:52.480Z,94790.96
2018-07-10T07:20:22.372Z,94793.52
2018-07-10T07:22:51.569Z,94787.72
2018-07-10T07:25:21.097Z,94785.30
2018-07-10T07:27:50.103Z,94791.24
2018-07-10T07:30:19.416Z,94793.16
2018-07-10T07:32:49.403Z,94788.75
2018-07-10T07:35:18.364Z,94778.91
2018-07-10T07:37:47.575Z,94785.70
2018-07-10T07:40:16.984Z,94781.28
2018-07-10T07:42:46.098Z,94787.29
2018-07-10T07:45:14.924Z,94785.87
2018-07-10T07:47:44.613Z,94784.00
2018-07-10T07:50:13.643Z,94777.41
2018-07-10T07:52:42.707Z,94784.71
2018-07-10T07:55:11.781Z,94781.11
2018-07-10T07:57:40.980Z,94788.64
2018-07-10T08:00:10.500Z,94776.33
2018-07-10T08:02:40.025Z,94780.30
2018-07-10T08:05:09.295Z,94785.84
2018-07-10T08:07:38.597Z,94772.42
2018-07-10T08:10:08.162Z,94783.64
2018-07-10T08:12:38.731Z,94779.95
2018-07-10T08:15:08.227Z,94789.05
2018-07-10T08:17:37.767Z,94782.66
2018-07-10T08:20:07.619Z,94793.72
2018-07-10T08:22:36.967Z,94790.78
2018-07-10T08:25:06.926Z,94793.25
2018-07-10T08:27:38.234Z,94798.86
2018-07-10T08:30:08.170Z,94791.91
2018-07-10T08:32:38.175Z,94793.68
2018-07-10T08:35:07.689Z,94789.64
2018-07-10T08:37:36.882Z,94780.58
2018-07-10T08:40:06.191Z,94787.75
2018-07-10T08:42:35.588Z,94781.95
2018-07-10T08:45:05.524Z,94779.64
2018-07-10T08:47:35.133Z,94785.33
2018-07-10T08:50:04.739Z,94789.65
2018-07-10T08:52:34.016Z,94784.15
2018-07-10T08:55:03.234Z,94779.06
2018-07-10T08:57:32.535Z,94769.64
2018-07-10T09:00:02.039Z,94773.13
2018-07-10T09:02:31.344Z,94771.63
2018-07-10T09:05:00.839Z,94753.55
2018-07-10T09:07:30.023Z,94768.05
2018-07-10T09:09:59.211Z,94772.39
2018-07-10T09:12:28.798Z,94766.67
2018-07-10T09:14:57.943Z,94773.31
2018-07-10T09:17:28.198Z,94771.88
2018-07-10T09:19:59.256Z,94772.33
2018-07-10T09:22:28.683Z,94779.38
2018-07-10T09:24:58.564Z,94775.62
2018-07-10T09:27:28.095Z,94781.16
2018-07-10T09:29:57.237Z,94775.76
2018-07-10T09:32:31.759Z,94779.38
2018-07-10T09:35:00.939Z,94776.23
2018-07-10T09:37:36.869Z,94780.89
2018-07-10T09:40:11.144Z,94780.38
2018-07-10T09:42:47.477Z,94765.81
2018-07-10T09:45:16.639Z,94758.79
2018-07-10T09:47:45.856Z,94767.30
2018-07-10T09:50:15.277Z,94761.31
2018-07-10T09:52:44.422Z,94763.09
2018-07-10T09:55:13.756Z,94757.05
2018-07-10T09:57:44.658Z,94755.02
2018-07-10T10:00:13.922Z,94752.01
2018-07-10T10:02:43.102Z,94742.73
2018-07-10T10:05:12.636Z,94749.29
2018-07-10T10:07:41.819Z,94754.67
2018-07-10T10:10:10.913Z,94750.70
2018-07-10T10:12:40.164Z,94747.29
2018-07-10T10:15:09.441Z,94739.98
2018-07-10T10:17:38.610Z,94748.14
2018-07-10T10:20:07.684Z,94755.39
2018-07-10T10:22:37.994Z,94756.27
2018-07-10T10:25:07.111Z,94758.44
2018-07-10T10:27:36.622Z,94752.95
2018-07-10T10:30:09.095Z,94750.80
2018-07-10T10:32:38.832Z,94756.05
2018-07-10T10:35:08.097Z,94756.38
2018-07-10T10:37:37.267Z,94757.79
2018-07-10T10:40:06.729Z,94746.26
2018-07-10T10:42:35.927Z,94748.69
2018-07-10T10:45:05.157Z,94738.95
2018-07-10T10:47:35.187Z,94754.15
2018-07-10T10:50:04.328Z,94750.06
2018-07-10T10:52:33.660Z,94750.48
2018-07-10T10:55:03.422Z,94753.70
2018-07-10T10:57:37.976Z,94750.16
2018-07-10T11:00:07.778Z,94749.80
2018-07-10T11:02:37.261Z,94752.08
2018-07-10T11:05:16.431Z,94752.33
2018-07-10T11:07:45.589Z,94747.94
2018-07-10T11:10:14.757Z,94745.39
2018-07-10T11:12:44.290Z,94747.61
2018-07-10T11:15:13.463Z,94741.01
2018-07-10T11:18:25.280Z,94738.39
2018-07-10T11:20:56.963Z,94732.59
2018-07-10T11:23:38.985Z,94730.12
2018-07-10T11:26:13.104Z,94730.12
2018-07-10T11:28:42.382Z,94716.38
2018-07-10T11:31:11.593Z,94711.31
2018-07-10T11:33:40.981Z,94715.66
2018-07-10T11:36:10.641Z,94719.80
2018-07-10T11:38:39.855Z,94709.20
2018-07-10T11:41:09.067Z,94711.33
2018-07-10T11:43:40.316Z,94715.66
2018-07-10T11:46:09.471Z,94718.69
2018-07-10T11:48:38.698Z,94710.81
2018-07-10T11:51:08.130Z,94715.33
2018-07-10T11:53:37.732Z,94719.97
2018-07-10T11:56:06.707Z,94723.99
2018-07-10T11:58:35.779Z,94720.11
2018-07-10T12:01:04.925Z,94698.32
2018-07-10T12:03:42.556Z,94725.30
2018-07-10T12:06:12.011Z,94728.22
2018-07-10T12:08:41.361Z,94724.91
2018-07-10T12:11:17.007Z,94723.03
2018-07-10T12:13:46.370Z,94725.44
2018-07-10T12:16:15.694Z,94725.21
2018-07-10T12:18:45.040Z,94724.86
2018-07-10T12:21:16.907Z,94730.77
2018-07-10T12:23:46.686Z,94731.49
2018-07-10T12:26:15.975Z,94730.88
2018-07-10T12:28:45.266Z,94727.32
2018-07-10T12:31:14.826Z,94732.72
2018-07-10T12:33:44.047Z,94740.63
2018-07-10T12:36:12.730Z,94733.87
2018-07-10T12:38:42.222Z,94733.52
2018-07-10T12:41:11.152Z,94730.23
2018-07-10T12:43:39.961Z,94739.38
2018-07-10T12:46:09.435Z,94741.11
2018-07-10T12:48:39.664Z,94736.81
2018-07-10T12:51:08.782Z,94735.50
2018-07-10T12:53:38.590Z,94738.30
2018-07-10T12:56:07.812Z,94739.19
2018-07-10T12:59:42.928Z,94736.34
2018-07-10T13:02:11.890Z,94730.88
2018-07-10T13:04:41.150Z,94733.73
2018-07-10T13:07:10.783Z,94731.44
2018-07-10T13:09:39.995Z,94736.52
2018-07-10T13:12:09.241Z,94734.08
2018-07-10T13:14:38.978Z,94727.84
2018-07-10T13:17:08.033Z,94732.68
2018-07-10T13:19:39.074Z,94730.50
2018-07-10T13:22:08.681Z,94731.91
2018-07-10T13:24:37.773Z,94727.67
2018-07-10T13:27:06.981Z,94736.50
2018-07-10T13:29:36.220Z,94734.92
2018-07-10T13:32:05.186Z,94732.81
2018-07-10T13:34:34.379Z,94731.30
2018-07-10T13:37:03.571Z,94724.83
2018-07-10T13:39:32.774Z,94724.33
2018-07-10T13:42:01.641Z,94732.85
2018-07-10T13:44:31.034Z,94728.67
2018-07-10T13:46:59.807Z,94735.16
2018-07-10T13:49:28.945Z,94731.16
2018-07-10T13:51:58.576Z,94724.86
2018-07-10T13:54:27.859Z,94733.59
2018-07-10T13:56:56.886Z,94733.19
2018-07-10T13:59:27.489Z,94733.52
2018-07-10T14:01:57.175Z,94735.97
2018-07-10T14:04:26.779Z,94735.83
2018-07-10T14:06:55.687Z,94729.88
2018-07-10T14:09:24.873Z,94731.19
2018-07-10T14:11:54.681Z,94739.11
2018-07-10T14:14:24.313Z,94736.28
2018-07-10T14:16:53.283Z,94734.47
2018-07-10T14:19:22.277Z,94734.80
2018-07-10T14:21:51.899Z,94742.20
2018-07-10T14:24:20.851Z,94738.84
2018-07-10T14:26:49.775Z,94731.97
2018-07-10T14:29:19.694Z,94730.80
2018-07-10T14:31:48.882Z,94729.58
2018-07-10T14:34:17.829Z,94723.12
2018-07-10T14:36:47.237Z,94731.33
2018-07-10T14:39:16.880Z,94727.98
2018-07-10T14:41:45.899Z,94736.45
2018-07-10T14:44:15.525Z,94727.91
2018-07-10T14:46:44.539Z,94732.88
2018-07-10T14:49:13.608Z,94728.27
2018-07-10T14:51:46.310Z,94733.05
2018-07-10T14:54:15.621Z,94729.77
2018-07-10T14:56:44.885Z,94733.91
2018-07-10T14:59:14.591Z,94729.00
2018-07-10T15:01:43.891Z,94728.09
2018-07-10T15:04:13.013Z,94727.05
2018-07-10T15:06:42.211Z,94729.68
2018-07-10T15:09:11.298Z,94724.10
2018-07-10T15:11:41.557Z,94733.89
2018-07-10T15:14:11.779Z,94721.70
2018-07-10T15:16:45.950Z,94726.84
2018-07-10T15:19:17.345Z,94724.58
2018-07-10T15:21:46.214Z,94724.21
2018-07-10T15:24:15.599Z,94729.01
2018-07-10T15:26:44.709Z,94731.18
2018-07-10T15:29:17.753Z,94735.22
2018-07-10T15:31:46.898Z,94735.50
2018-07-10T15:34:16.169Z,94736.86
2018-07-10T15:36:45.346Z,94744.57
2018-07-10T15:39:15.013Z,94741.05
2018-07-10T15:41:44.169Z,94743.09
2018-07-10T15:44:13.893Z,94744.41
2018-07-10T15:46:43.232Z,94740.53
2018-07-10T15:49:12.286Z,94750.84
2018-07-10T15:51:42.315Z,94751.67
2018-07-10T15:54:11.863Z,94745.17
2018-07-10T15:56:41.845Z,94751.70
2018-07-10T15:59:10.822Z,94747.82
2018-07-10T16:01:39.924Z,94751.90
2018-07-10T16:04:09.846Z,94748.80
2018-07-10T16:06:39.034Z,94752.62
2018-07-10T16:09:16.972Z,94757.56
2018-07-10T16:11:46.446Z,94761.69
2018-07-10T16:14:15.541Z,94760.52
2018-07-10T16:16:46.914Z,94754.28
2018-07-10T16:19:18.544Z,94758.39
2018-07-10T16:21:54.885Z,94757.74
2018-07-10T16:24:24.028Z,94763.20
2018-07-10T16:26:54.263Z,94761.38
2018-07-10T16:29:25.091Z,94766.22
2018-07-10T16:34:23.666Z,94769.32
2018-07-10T16:36:53.090Z,94762.34
2018-07-10T16:39:22.038Z,94769.88
2018-07-10T16:41:56.618Z,94768.69
2018-07-10T16:44:25.851Z,94774.25
2018-07-10T16:47:19.580Z,94769.45
2018-07-10T16:49:48.779Z,94772.43
2018-07-10T16:52:36.004Z,94778.98
2018-07-10T16:55:05.112Z,94770.52
2018-07-10T16:57:34.318Z,94778.66
2018-07-10T17:00:03.624Z,94774.59
2018-07-10T17:02:32.483Z,94777.91
2018-07-10T17:05:01.662Z,94779.50
2018-07-10T17:07:30.778Z,94777.79
2018-07-10T17:09:59.720Z,94779.73
2018-07-10T17:12:28.817Z,94778.23
2018-07-10T17:14:59.464Z,94780.37
2018-07-10T17:17:28.542Z,94781.98
2018-07-10T17:19:57.727Z,94782.38
2018-07-10T17:22:27.282Z,94780.98
2018-07-10T17:24:56.875Z,94790.09
2018-07-10T17:27:34.851Z,94783.05
2018-07-10T17:30:04.907Z,94786.15
2018-07-10T17:32:35.350Z,94787.09
2018-07-10T17:35:05.037Z,94784.75
2018-07-10T17:37:40.669Z,94780.02
2018-07-10T17:40:09.679Z,94785.90
2018-07-10T17:42:39.266Z,94786.71
2018-07-10T17:45:11.589Z,94788.40
2018-07-10T17:47:40.554Z,94793.90
2018-07-10T17:50:09.836Z,94793.56
2018-07-10T17:52:38.950Z,94792.36
2018-07-10T17:55:07.937Z,94793.84
2018-07-10T17:57:36.921Z,94795.30
2018-07-10T18:00:06.327Z,94795.79
2018-07-10T18:02:35.526Z,94794.97
2018-07-10T18:05:04.570Z,94792.03
2018-07-10T18:07:33.748Z,94793.94
2018-07-10T18:10:02.925Z,94796.09
2018-07-10T18:12:32.016Z,94804.28
2018-07-10T18:15:01.568Z,94804.91
2018-07-10T18:17:30.567Z,94798.00
2018-07-10T18:19:59.593Z,94812.68
2018-07-10T18:22:29.036Z,94806.83
2018-07-10T18:24:58.215Z,94812.73
2018-07-10T18:27:27.051Z,94810.02
2018-07-10T18:29:57.208Z,94813.09
2018-07-10T18:32:26.190Z,94816.90
2018-07-10T18:34:55.115Z,94821.20
2018-07-10T18:37:24.039Z,94825.70
2018-07-10T18:39:53.292Z,94831.27
2018-07-10T18:42:22.396Z,94835.69
2018-07-10T18:44:51.727Z,94842.23
2018-07-10T18:47:21.075Z,94836.79
2018-07-10T18:49:53.738Z,94839.50
2018-07-10T18:52:27.892Z,94841.64
2018-07-10T18:54:58.743Z,94845.94
2018-07-10T18:57:44.423Z,94846.36
2018-07-10T19:00:13.860Z,94851.55
2018-07-10T19:03:06.715Z,94845.81
2018-07-10T19:05:44.562Z,94849.14
2018-07-10T19:08:13.496Z,94856.27
2018-07-10T19:10:44.855Z,94853.77
2018-07-10T19:13:15.336Z,94859.45
2018-07-10T19:15:45.478Z,94863.53
2018-07-10T19:18:15.508Z,94858.63
2018-07-10T19:20:59.787Z,94861.63
2018-07-10T19:23:49.942Z,94862.97
2018-07-10T19:26:24.118Z,94861.39
2018-07-10T19:28:58.619Z,94862.22
2018-07-10T19:31:31.744Z,94863.11
2018-07-10T19:34:01.576Z,94858.30
2018-07-10T19:36:30.481Z,94864.41
2018-07-10T19:39:00.738Z,94870.05
2018-07-10T19:41:30.338Z,94873.81
2018-07-10T19:43:59.367Z,94867.66
2018-07-10T19:46:28.985Z,94874.09
2018-07-10T19:48:58.505Z,94870.71
2018-07-10T19:51:29.175Z,94870.23
2018-07-10T19:54:07.178Z,94868.91
2018-07-10T19:56:36.736Z,94873.06
2018-07-10T19:59:06.891Z,94875.02
2018-07-10T20:01:53.055Z,94880.42
2018-07-10T20:04:42.071Z,94881.83
2018-07-10T20:07:15.897Z,94880.84
2018-07-10T20:09:48.776Z,94879.97
2018-07-10T20:12:20.112Z,94863.59
2018-07-10T20:14:57.998Z,94874.69
2018-07-10T20:17:29.447Z,94879.73
2018-07-10T20:20:10.551Z,94875.19
2018-07-10T20:22:48.999Z,94877.97
2018-07-10T20:25:35.223Z,94886.30
2018-07-10T20:28:41.954Z,94888.31
2018-07-10T20:31:14.603Z,94883.92
2018-07-10T20:33:52.587Z,94885.73
2018-07-10T20:36:23.366Z,94881.45
2018-07-10T20:38:54.103Z,94892.20
2018-07-10T20:41:26.727Z,94886.78
2018-07-10T20:43:55.773Z,94889.73
2018-07-10T20:46:26.679Z,94887.67
2018-07-10T20:48:58.617Z,94884.75
2018-07-10T20:51:33.706Z,94887.45
2018-07-10T20:54:28.352Z,94885.80
2018-07-10T20:57:04.500Z,94886.36
2018-07-10T20:59:44.499Z,94887.43
2018-07-10T21:02:24.382Z,94889.58
2018-07-10T21:05:10.345Z,94896.39
2018-07-10T21:08:00.789Z,94895.87
2018-07-10T21:10:49.943Z,94892.20
2018-07-10T21:13:32.392Z,94899.53
2018-07-10T21:16:10.585Z,94906.73
2018-07-10T21:18:56.219Z,94904.45
2018-07-10T21:21:40.903Z,94904.73
2018-07-10T21:24:22.771Z,94911.41
2018-07-10T21:27:00.299Z,94906.89
2018-07-10T21:31:07.102Z,94904.65
2018-07-10T21:33:44.780Z,94907.06
2018-07-10T21:36:22.380Z,94904.91
2018-07-10T21:39:02.148Z,94903.39
2018-07-10T21:41:46.644Z,94904.91
2018-07-10T21:44:38.623Z,94900.16
2018-07-10T21:47:17.486Z,94898.77
2018-07-10T21:49:54.329Z,94901.94
2018-07-10T21:52:23.839Z,94898.07
2018-07-10T21:54:52.967Z,94896.81
2018-07-10T21:57:28.607Z,94890.64
2018-07-10T21:59:58.164Z,94900.86
2018-07-10T22:02:27.215Z,94902.98
2018-07-10T22:04:58.378Z,94904.52
2018-07-10T22:07:28.627Z,94905.12
2018-07-10T22:10:07.016Z,94898.71
2018-07-10T22:12:44.349Z,94896.81
2018-07-10T22:15:13.983Z,94902.11
2018-07-10T22:17:44.001Z,94902.13
2018-07-10T22:20:13.271Z,94897.33
2018-07-10T22:22:42.683Z,94897.97
2018-07-10T22:25:11.752Z,94894.44
2018-07-10T22:27:42.780Z,94898.48
2018-07-10T22:30:19.422Z,94892.93
2018-07-10T22:32:54.155Z,94889.88
2018-07-10T22:35:24.230Z,94886.62
2018-07-10T22:37:53.507Z,94890.42
2018-07-10T22:40:22.467Z,94888.14
2018-07-10T22:42:51.456Z,94889.80
2018-07-10T22:45:20.780Z,94887.39
2018-07-10T22:47:50.643Z,94879.47
2018-07-10T22:50:22.808Z,94881.22
2018-07-10T22:52:53.836Z,94879.95
2018-07-10T22:55:25.444Z,94877.68
2018-07-10T22:57:55.799Z,94883.22
2018-07-10T23:00:30.791Z,94876.95
2018-07-10T23:03:00.827Z,94875.16
2018-07-10T23:05:29.902Z,94883.47
2018-07-10T23:07:59.367Z,94885.10
2018-07-10T23:10:28.900Z,94885.22
2018-07-10T23:12:58.000Z,94883.33
2018-07-10T23:15:27.819Z,94884.72
2018-07-10T23:17:56.858Z,94895.16
2018-07-10T23:20:25.906Z,94897.16
2018-07-10T23:22:56.936Z,94892.13
2018-07-10T23:25:27.259Z,94890.73
2018-07-10T23:28:04.171Z,94899.16
2018-07-10T23:30:37.133Z,94903.28
2018-07-10T23:33:08.250Z,94905.67
2018-07-10T23:35:38.530Z,94908.27
2018-07-10T23:38:19.567Z,94902.60
2018-07-10T23:40:48.743Z,94896.58
2018-07-10T23:43:17.783Z,94895.20
2018-07-10T23:45:47.214Z,94893.81
2018-07-10T23:48:16.311Z,94867.40
2018-07-10T23:50:45.806Z,94892.95
2018-07-10T23:53:52.465Z,94891.16
2018-07-10T23:56:21.767Z,94895.06
2018-07-10T23:58:51.025Z,94897.92
